sensor_id;sensor_type;location;lat;lon;timestamp;P1;durP1;ratioP1;P2;durP2;ratioP2
73132;SDS011;61320;52.008;4.530;2023-07-02T00:01:33;6.23;;;6.16;;
73132;SDS011;61320;52.008;4.530;2023-07-02T00:03:59;6.49;;;6.41;;
73132;SDS011;61320;52.008;4.530;2023-07-02T00:06:24;6.59;;;6.51;;
73132;SDS011;61320;52.008;4.530;2023-07-02T00:08:50;6.66;;;6.64;;
73132;SDS011;61320;52.008;4.530;2023-07-02T00:11:15;6.85;;;6.80;;
73132;SDS011;61320;52.008;4.530;2023-07-02T00:13:41;6.88;;;6.81;;
73132;SDS011;61320;52.008;4.530;2023-07-02T00:16:06;6.32;;;6.24;;
73132;SDS011;61320;52.008;4.530;2023-07-02T00:18:32;6.16;;;6.09;;
73132;SDS011;61320;52.008;4.530;2023-07-02T00:21:00;6.22;;;6.16;;
73132;SDS011;61320;52.008;4.530;2023-07-02T00:23:29;6.30;;;6.20;;
73132;SDS011;61320;52.008;4.530;2023-07-02T00:25:56;6.06;;;5.97;;
73132;SDS011;61320;52.008;4.530;2023-07-02T00:28:22;5.66;;;5.61;;
73132;SDS011;61320;52.008;4.530;2023-07-02T00:30:48;5.60;;;5.56;;
73132;SDS011;61320;52.008;4.530;2023-07-02T00:33:13;5.68;;;5.65;;
73132;SDS011;61320;52.008;4.530;2023-07-02T00:35:39;5.25;;;5.25;;
73132;SDS011;61320;52.008;4.530;2023-07-02T00:38:04;5.83;;;5.82;;
73132;SDS011;61320;52.008;4.530;2023-07-02T00:40:29;6.17;;;6.14;;
73132;SDS011;61320;52.008;4.530;2023-07-02T00:42:55;6.29;;;6.25;;
73132;SDS011;61320;52.008;4.530;2023-07-02T00:45:22;7.02;;;6.99;;
73132;SDS011;61320;52.008;4.530;2023-07-02T00:47:47;7.86;;;7.78;;
73132;SDS011;61320;52.008;4.530;2023-07-02T00:50:13;7.58;;;7.52;;
73132;SDS011;61320;52.008;4.530;2023-07-02T00:52:39;8.07;;;8.04;;
73132;SDS011;61320;52.008;4.530;2023-07-02T00:55:05;8.39;;;8.31;;
73132;SDS011;61320;52.008;4.530;2023-07-02T00:57:30;9.06;;;9.01;;
73132;SDS011;61320;52.008;4.530;2023-07-02T00:59:59;9.15;;;9.10;;
73132;SDS011;61320;52.008;4.530;2023-07-02T01:02:25;9.31;;;9.20;;
73132;SDS011;61320;52.008;4.530;2023-07-02T01:04:51;10.12;;;9.90;;
73132;SDS011;61320;52.008;4.530;2023-07-02T01:07:23;9.79;;;9.56;;
73132;SDS011;61320;52.008;4.530;2023-07-02T01:09:48;9.83;;;9.67;;
73132;SDS011;61320;52.008;4.530;2023-07-02T01:12:14;10.39;;;10.27;;
73132;SDS011;61320;52.008;4.530;2023-07-02T01:14:44;9.95;;;9.81;;
73132;SDS011;61320;52.008;4.530;2023-07-02T01:17:15;10.52;;;10.30;;
73132;SDS011;61320;52.008;4.530;2023-07-02T01:22:18;10.26;;;10.05;;
73132;SDS011;61320;52.008;4.530;2023-07-02T01:24:45;10.01;;;9.78;;
73132;SDS011;61320;52.008;4.530;2023-07-02T01:27:14;9.54;;;9.36;;
73132;SDS011;61320;52.008;4.530;2023-07-02T01:29:41;10.37;;;10.15;;
73132;SDS011;61320;52.008;4.530;2023-07-02T01:32:07;9.82;;;9.68;;
73132;SDS011;61320;52.008;4.530;2023-07-02T01:34:33;9.88;;;9.68;;
73132;SDS011;61320;52.008;4.530;2023-07-02T01:36:59;9.88;;;9.66;;
73132;SDS011;61320;52.008;4.530;2023-07-02T01:39:25;10.54;;;10.33;;
73132;SDS011;61320;52.008;4.530;2023-07-02T01:41:52;9.80;;;9.61;;
73132;SDS011;61320;52.008;4.530;2023-07-02T01:44:19;10.37;;;10.09;;
73132;SDS011;61320;52.008;4.530;2023-07-02T01:46:45;10.45;;;10.12;;
73132;SDS011;61320;52.008;4.530;2023-07-02T01:49:15;10.18;;;9.97;;
73132;SDS011;61320;52.008;4.530;2023-07-02T01:51:44;10.52;;;10.27;;
73132;SDS011;61320;52.008;4.530;2023-07-02T01:54:13;10.86;;;10.52;;
73132;SDS011;61320;52.008;4.530;2023-07-02T01:56:39;10.39;;;10.09;;
73132;SDS011;61320;52.008;4.530;2023-07-02T01:59:04;10.88;;;10.55;;
73132;SDS011;61320;52.008;4.530;2023-07-02T02:01:30;11.19;;;10.89;;
73132;SDS011;61320;52.008;4.530;2023-07-02T02:03:55;10.93;;;10.71;;
73132;SDS011;61320;52.008;4.530;2023-07-02T02:06:21;10.88;;;10.61;;
73132;SDS011;61320;52.008;4.530;2023-07-02T02:08:46;10.19;;;9.98;;
73132;SDS011;61320;52.008;4.530;2023-07-02T02:11:11;11.10;;;10.77;;
73132;SDS011;61320;52.008;4.530;2023-07-02T02:13:37;10.67;;;10.37;;
73132;SDS011;61320;52.008;4.530;2023-07-02T02:16:03;10.32;;;10.11;;
73132;SDS011;61320;52.008;4.530;2023-07-02T02:18:28;10.77;;;10.54;;
73132;SDS011;61320;52.008;4.530;2023-07-02T02:20:54;10.77;;;10.51;;
73132;SDS011;61320;52.008;4.530;2023-07-02T02:23:19;11.02;;;10.80;;
73132;SDS011;61320;52.008;4.530;2023-07-02T02:25:45;11.33;;;11.02;;
73132;SDS011;61320;52.008;4.530;2023-07-02T02:28:10;11.29;;;11.03;;
73132;SDS011;61320;52.008;4.530;2023-07-02T02:30:35;11.34;;;11.09;;
73132;SDS011;61320;52.008;4.530;2023-07-02T02:33:01;11.63;;;11.24;;
73132;SDS011;61320;52.008;4.530;2023-07-02T02:35:26;11.64;;;11.24;;
73132;SDS011;61320;52.008;4.530;2023-07-02T02:37:52;11.52;;;11.17;;
73132;SDS011;61320;52.008;4.530;2023-07-02T02:40:17;11.25;;;11.00;;
73132;SDS011;61320;52.008;4.530;2023-07-02T02:42:43;11.08;;;10.80;;
73132;SDS011;61320;52.008;4.530;2023-07-02T02:45:08;11.66;;;11.31;;
73132;SDS011;61320;52.008;4.530;2023-07-02T02:47:34;12.05;;;11.59;;
73132;SDS011;61320;52.008;4.530;2023-07-02T02:50:00;12.27;;;11.64;;
73132;SDS011;61320;52.008;4.530;2023-07-02T02:52:25;11.88;;;11.42;;
73132;SDS011;61320;52.008;4.530;2023-07-02T02:54:51;11.50;;;11.14;;
73132;SDS011;61320;52.008;4.530;2023-07-02T02:57:19;11.62;;;11.21;;
73132;SDS011;61320;52.008;4.530;2023-07-02T02:59:44;11.12;;;10.75;;
73132;SDS011;61320;52.008;4.530;2023-07-02T03:02:11;11.81;;;11.36;;
73132;SDS011;61320;52.008;4.530;2023-07-02T03:04:36;11.66;;;11.18;;
73132;SDS011;61320;52.008;4.530;2023-07-02T03:07:05;12.13;;;11.71;;
73132;SDS011;61320;52.008;4.530;2023-07-02T03:09:31;11.42;;;11.02;;
73132;SDS011;61320;52.008;4.530;2023-07-02T03:11:57;11.18;;;10.91;;
73132;SDS011;61320;52.008;4.530;2023-07-02T03:14:22;11.20;;;10.79;;
73132;SDS011;61320;52.008;4.530;2023-07-02T03:16:48;11.97;;;11.49;;
73132;SDS011;61320;52.008;4.530;2023-07-02T03:19:13;11.36;;;10.78;;
73132;SDS011;61320;52.008;4.530;2023-07-02T03:21:44;10.95;;;10.48;;
73132;SDS011;61320;52.008;4.530;2023-07-02T03:24:09;11.27;;;10.84;;
73132;SDS011;61320;52.008;4.530;2023-07-02T03:26:38;10.94;;;10.35;;
73132;SDS011;61320;52.008;4.530;2023-07-02T03:29:05;11.40;;;10.88;;
73132;SDS011;61320;52.008;4.530;2023-07-02T03:31:31;11.31;;;10.88;;
73132;SDS011;61320;52.008;4.530;2023-07-02T03:33:56;11.25;;;10.68;;
73132;SDS011;61320;52.008;4.530;2023-07-02T03:36:22;11.60;;;10.85;;
73132;SDS011;61320;52.008;4.530;2023-07-02T03:38:47;11.19;;;10.71;;
73132;SDS011;61320;52.008;4.530;2023-07-02T03:41:13;11.06;;;10.55;;
73132;SDS011;61320;52.008;4.530;2023-07-02T03:43:39;10.76;;;10.24;;
73132;SDS011;61320;52.008;4.530;2023-07-02T03:46:04;10.76;;;10.38;;
73132;SDS011;61320;52.008;4.530;2023-07-02T03:48:30;10.61;;;10.24;;
73132;SDS011;61320;52.008;4.530;2023-07-02T03:50:55;10.70;;;10.30;;
73132;SDS011;61320;52.008;4.530;2023-07-02T03:53:20;10.30;;;9.94;;
73132;SDS011;61320;52.008;4.530;2023-07-02T03:55:46;10.92;;;10.40;;
73132;SDS011;61320;52.008;4.530;2023-07-02T03:58:11;10.98;;;10.40;;
73132;SDS011;61320;52.008;4.530;2023-07-02T04:00:37;10.98;;;10.30;;
73132;SDS011;61320;52.008;4.530;2023-07-02T04:03:03;10.09;;;9.67;;
73132;SDS011;61320;52.008;4.530;2023-07-02T04:05:29;10.35;;;9.92;;
73132;SDS011;61320;52.008;4.530;2023-07-02T04:07:54;9.86;;;9.51;;
73132;SDS011;61320;52.008;4.530;2023-07-02T04:10:20;9.70;;;9.37;;
73132;SDS011;61320;52.008;4.530;2023-07-02T04:12:45;9.53;;;9.19;;
73132;SDS011;61320;52.008;4.530;2023-07-02T04:15:11;9.45;;;9.15;;
73132;SDS011;61320;52.008;4.530;2023-07-02T04:17:36;9.20;;;8.96;;
73132;SDS011;61320;52.008;4.530;2023-07-02T04:20:02;9.51;;;9.21;;
73132;SDS011;61320;52.008;4.530;2023-07-02T04:22:29;9.88;;;9.56;;
73132;SDS011;61320;52.008;4.530;2023-07-02T04:24:55;9.46;;;9.14;;
73132;SDS011;61320;52.008;4.530;2023-07-02T04:27:21;9.88;;;9.37;;
73132;SDS011;61320;52.008;4.530;2023-07-02T04:29:46;9.41;;;8.90;;
73132;SDS011;61320;52.008;4.530;2023-07-02T04:32:12;9.38;;;8.88;;
73132;SDS011;61320;52.008;4.530;2023-07-02T04:34:37;9.16;;;8.72;;
73132;SDS011;61320;52.008;4.530;2023-07-02T04:37:04;9.48;;;9.08;;
73132;SDS011;61320;52.008;4.530;2023-07-02T04:39:29;8.72;;;8.48;;
73132;SDS011;61320;52.008;4.530;2023-07-02T04:41:55;8.98;;;8.76;;
73132;SDS011;61320;52.008;4.530;2023-07-02T04:44:20;9.62;;;9.32;;
73132;SDS011;61320;52.008;4.530;2023-07-02T04:46:55;9.68;;;9.31;;
73132;SDS011;61320;52.008;4.530;2023-07-02T04:49:21;9.46;;;9.01;;
73132;SDS011;61320;52.008;4.530;2023-07-02T04:51:47;9.42;;;8.97;;
73132;SDS011;61320;52.008;4.530;2023-07-02T04:54:12;9.68;;;9.19;;
73132;SDS011;61320;52.008;4.530;2023-07-02T04:56:38;9.48;;;9.06;;
73132;SDS011;61320;52.008;4.530;2023-07-02T04:59:03;8.91;;;8.63;;
73132;SDS011;61320;52.008;4.530;2023-07-02T05:01:29;9.63;;;9.33;;
73132;SDS011;61320;52.008;4.530;2023-07-02T05:03:54;9.74;;;9.31;;
73132;SDS011;61320;52.008;4.530;2023-07-02T05:06:20;8.77;;;8.44;;
73132;SDS011;61320;52.008;4.530;2023-07-02T05:08:45;8.59;;;8.35;;
73132;SDS011;61320;52.008;4.530;2023-07-02T05:11:11;8.84;;;8.46;;
73132;SDS011;61320;52.008;4.530;2023-07-02T05:13:36;8.95;;;8.28;;
73132;SDS011;61320;52.008;4.530;2023-07-02T05:16:01;8.64;;;8.35;;
73132;SDS011;61320;52.008;4.530;2023-07-02T05:18:27;8.57;;;8.26;;
73132;SDS011;61320;52.008;4.530;2023-07-02T05:20:53;8.20;;;7.86;;
73132;SDS011;61320;52.008;4.530;2023-07-02T05:23:18;8.43;;;8.03;;
73132;SDS011;61320;52.008;4.530;2023-07-02T05:25:44;8.45;;;7.94;;
73132;SDS011;61320;52.008;4.530;2023-07-02T05:28:11;8.63;;;8.14;;
73132;SDS011;61320;52.008;4.530;2023-07-02T05:30:36;8.88;;;8.29;;
73132;SDS011;61320;52.008;4.530;2023-07-02T05:33:02;8.67;;;8.15;;
73132;SDS011;61320;52.008;4.530;2023-07-02T05:35:27;8.22;;;7.89;;
73132;SDS011;61320;52.008;4.530;2023-07-02T05:37:53;8.51;;;8.15;;
73132;SDS011;61320;52.008;4.530;2023-07-02T05:40:18;8.53;;;8.20;;
73132;SDS011;61320;52.008;4.530;2023-07-02T05:42:44;8.34;;;8.03;;
73132;SDS011;61320;52.008;4.530;2023-07-02T05:45:09;8.59;;;8.19;;
73132;SDS011;61320;52.008;4.530;2023-07-02T05:47:36;9.15;;;8.68;;
73132;SDS011;61320;52.008;4.530;2023-07-02T05:50:01;8.49;;;8.19;;
73132;SDS011;61320;52.008;4.530;2023-07-02T05:52:27;8.75;;;8.32;;
73132;SDS011;61320;52.008;4.530;2023-07-02T05:54:52;8.74;;;8.36;;
73132;SDS011;61320;52.008;4.530;2023-07-02T05:57:18;8.63;;;8.28;;
73132;SDS011;61320;52.008;4.530;2023-07-02T05:59:43;8.69;;;8.36;;
73132;SDS011;61320;52.008;4.530;2023-07-02T06:02:08;8.21;;;7.90;;
73132;SDS011;61320;52.008;4.530;2023-07-02T06:04:34;8.36;;;7.97;;
73132;SDS011;61320;52.008;4.530;2023-07-02T06:06:59;8.09;;;7.79;;
73132;SDS011;61320;52.008;4.530;2023-07-02T06:09:25;8.01;;;7.80;;
73132;SDS011;61320;52.008;4.530;2023-07-02T06:11:50;8.39;;;8.07;;
73132;SDS011;61320;52.008;4.530;2023-07-02T06:14:16;7.90;;;7.70;;
73132;SDS011;61320;52.008;4.530;2023-07-02T06:16:41;8.12;;;7.84;;
73132;SDS011;61320;52.008;4.530;2023-07-02T06:19:07;8.11;;;7.64;;
73132;SDS011;61320;52.008;4.530;2023-07-02T06:21:32;8.12;;;7.75;;
73132;SDS011;61320;52.008;4.530;2023-07-02T06:23:58;8.48;;;8.15;;
73132;SDS011;61320;52.008;4.530;2023-07-02T06:26:23;8.19;;;7.96;;
73132;SDS011;61320;52.008;4.530;2023-07-02T06:28:49;7.98;;;7.65;;
73132;SDS011;61320;52.008;4.530;2023-07-02T06:31:15;7.96;;;7.68;;
73132;SDS011;61320;52.008;4.530;2023-07-02T06:33:40;7.69;;;7.42;;
73132;SDS011;61320;52.008;4.530;2023-07-02T06:36:07;7.98;;;7.71;;
73132;SDS011;61320;52.008;4.530;2023-07-02T06:38:33;7.88;;;7.65;;
73132;SDS011;61320;52.008;4.530;2023-07-02T06:40:58;7.77;;;7.49;;
73132;SDS011;61320;52.008;4.530;2023-07-02T06:43:24;7.00;;;6.82;;
73132;SDS011;61320;52.008;4.530;2023-07-02T06:45:49;7.65;;;7.31;;
73132;SDS011;61320;52.008;4.530;2023-07-02T06:48:15;7.93;;;7.63;;
73132;SDS011;61320;52.008;4.530;2023-07-02T06:50:45;8.00;;;7.72;;
73132;SDS011;61320;52.008;4.530;2023-07-02T06:53:11;7.73;;;7.53;;
73132;SDS011;61320;52.008;4.530;2023-07-02T06:55:37;7.78;;;7.51;;
73132;SDS011;61320;52.008;4.530;2023-07-02T06:58:04;8.33;;;8.04;;
73132;SDS011;61320;52.008;4.530;2023-07-02T07:00:32;8.19;;;7.86;;
73132;SDS011;61320;52.008;4.530;2023-07-02T07:03:01;7.63;;;7.35;;
73132;SDS011;61320;52.008;4.530;2023-07-02T07:05:29;7.65;;;7.42;;
73132;SDS011;61320;52.008;4.530;2023-07-02T07:07:55;8.28;;;7.85;;
73132;SDS011;61320;52.008;4.530;2023-07-02T07:10:21;8.18;;;7.77;;
73132;SDS011;61320;52.008;4.530;2023-07-02T07:12:46;7.91;;;7.54;;
73132;SDS011;61320;52.008;4.530;2023-07-02T07:15:12;7.47;;;7.23;;
73132;SDS011;61320;52.008;4.530;2023-07-02T07:17:37;7.21;;;7.01;;
73132;SDS011;61320;52.008;4.530;2023-07-02T07:20:03;7.19;;;6.94;;
73132;SDS011;61320;52.008;4.530;2023-07-02T07:22:30;7.49;;;7.29;;
73132;SDS011;61320;52.008;4.530;2023-07-02T07:24:55;7.13;;;6.98;;
73132;SDS011;61320;52.008;4.530;2023-07-02T07:27:21;6.63;;;6.52;;
73132;SDS011;61320;52.008;4.530;2023-07-02T07:29:46;6.76;;;6.56;;
73132;SDS011;61320;52.008;4.530;2023-07-02T07:32:12;7.28;;;6.97;;
73132;SDS011;61320;52.008;4.530;2023-07-02T07:34:37;7.18;;;6.92;;
73132;SDS011;61320;52.008;4.530;2023-07-02T07:37:03;6.83;;;6.72;;
73132;SDS011;61320;52.008;4.530;2023-07-02T07:39:29;6.76;;;6.67;;
73132;SDS011;61320;52.008;4.530;2023-07-02T07:41:55;6.99;;;6.85;;
73132;SDS011;61320;52.008;4.530;2023-07-02T07:44:21;6.97;;;6.82;;
73132;SDS011;61320;52.008;4.530;2023-07-02T07:46:46;7.03;;;6.88;;
73132;SDS011;61320;52.008;4.530;2023-07-02T07:49:12;7.50;;;7.29;;
73132;SDS011;61320;52.008;4.530;2023-07-02T07:51:38;7.42;;;7.18;;
73132;SDS011;61320;52.008;4.530;2023-07-02T07:54:04;6.89;;;6.71;;
73132;SDS011;61320;52.008;4.530;2023-07-02T07:56:29;6.50;;;6.35;;
73132;SDS011;61320;52.008;4.530;2023-07-02T07:58:55;6.62;;;6.42;;
73132;SDS011;61320;52.008;4.530;2023-07-02T08:01:21;6.36;;;6.21;;
73132;SDS011;61320;52.008;4.530;2023-07-02T08:03:46;6.07;;;5.90;;
73132;SDS011;61320;52.008;4.530;2023-07-02T08:06:12;6.89;;;6.61;;
73132;SDS011;61320;52.008;4.530;2023-07-02T08:08:37;6.16;;;5.96;;
73132;SDS011;61320;52.008;4.530;2023-07-02T08:11:02;6.04;;;5.89;;
73132;SDS011;61320;52.008;4.530;2023-07-02T08:13:28;5.52;;;5.42;;
73132;SDS011;61320;52.008;4.530;2023-07-02T08:15:53;5.79;;;5.69;;
73132;SDS011;61320;52.008;4.530;2023-07-02T08:18:20;6.06;;;5.91;;
73132;SDS011;61320;52.008;4.530;2023-07-02T08:20:45;5.79;;;5.60;;
73132;SDS011;61320;52.008;4.530;2023-07-02T08:23:11;5.89;;;5.71;;
73132;SDS011;61320;52.008;4.530;2023-07-02T08:25:36;5.49;;;5.36;;
73132;SDS011;61320;52.008;4.530;2023-07-02T08:28:02;5.37;;;5.28;;
73132;SDS011;61320;52.008;4.530;2023-07-02T08:30:28;5.16;;;5.08;;
73132;SDS011;61320;52.008;4.530;2023-07-02T08:32:53;5.27;;;5.13;;
73132;SDS011;61320;52.008;4.530;2023-07-02T08:35:20;5.59;;;5.45;;
73132;SDS011;61320;52.008;4.530;2023-07-02T08:37:45;7.04;;;6.77;;
73132;SDS011;61320;52.008;4.530;2023-07-02T08:40:17;21.30;;;21.10;;
73132;SDS011;61320;52.008;4.530;2023-07-02T08:42:44;13.30;;;13.30;;
73132;SDS011;61320;52.008;4.530;2023-07-02T08:45:12;5.89;;;5.82;;
73132;SDS011;61320;52.008;4.530;2023-07-02T08:47:39;6.00;;;5.93;;
73132;SDS011;61320;52.008;4.530;2023-07-02T08:50:05;6.37;;;6.21;;
73132;SDS011;61320;52.008;4.530;2023-07-02T08:52:31;6.81;;;6.61;;
73132;SDS011;61320;52.008;4.530;2023-07-02T08:54:57;7.23;;;7.05;;
73132;SDS011;61320;52.008;4.530;2023-07-02T08:57:22;6.99;;;6.81;;
73132;SDS011;61320;52.008;4.530;2023-07-02T08:59:48;6.45;;;6.31;;
73132;SDS011;61320;52.008;4.530;2023-07-02T09:02:16;6.48;;;6.30;;
73132;SDS011;61320;52.008;4.530;2023-07-02T09:04:42;6.62;;;6.46;;
73132;SDS011;61320;52.008;4.530;2023-07-02T09:07:08;5.40;;;5.26;;
73132;SDS011;61320;52.008;4.530;2023-07-02T09:09:44;4.90;;;4.78;;
73132;SDS011;61320;52.008;4.530;2023-07-02T09:12:30;4.60;;;4.52;;
73132;SDS011;61320;52.008;4.530;2023-07-02T09:14:57;4.63;;;4.47;;
73132;SDS011;61320;52.008;4.530;2023-07-02T09:17:31;5.07;;;4.93;;
73132;SDS011;61320;52.008;4.530;2023-07-02T09:20:05;5.30;;;5.15;;
73132;SDS011;61320;52.008;4.530;2023-07-02T09:22:34;5.12;;;4.93;;
73132;SDS011;61320;52.008;4.530;2023-07-02T09:25:01;4.68;;;4.56;;
73132;SDS011;61320;52.008;4.530;2023-07-02T09:30:05;4.42;;;4.32;;
73132;SDS011;61320;52.008;4.530;2023-07-02T09:32:33;4.44;;;4.33;;
73132;SDS011;61320;52.008;4.530;2023-07-02T09:34:59;5.23;;;5.09;;
73132;SDS011;61320;52.008;4.530;2023-07-02T09:37:24;4.74;;;4.60;;
73132;SDS011;61320;52.008;4.530;2023-07-02T09:39:51;4.54;;;4.44;;
73132;SDS011;61320;52.008;4.530;2023-07-02T09:42:18;4.85;;;4.69;;
73132;SDS011;61320;52.008;4.530;2023-07-02T09:44:45;4.93;;;4.76;;
73132;SDS011;61320;52.008;4.530;2023-07-02T09:47:12;5.26;;;5.15;;
73132;SDS011;61320;52.008;4.530;2023-07-02T09:49:39;4.94;;;4.80;;
73132;SDS011;61320;52.008;4.530;2023-07-02T09:52:14;4.92;;;4.81;;
73132;SDS011;61320;52.008;4.530;2023-07-02T09:54:41;4.80;;;4.72;;
73132;SDS011;61320;52.008;4.530;2023-07-02T09:57:07;4.97;;;4.89;;
73132;SDS011;61320;52.008;4.530;2023-07-02T09:59:35;4.83;;;4.75;;
73132;SDS011;61320;52.008;4.530;2023-07-02T10:02:04;4.75;;;4.67;;
73132;SDS011;61320;52.008;4.530;2023-07-02T10:04:40;4.94;;;4.89;;
73132;SDS011;61320;52.008;4.530;2023-07-02T10:07:13;4.49;;;4.46;;
73132;SDS011;61320;52.008;4.530;2023-07-02T10:09:52;4.53;;;4.50;;
73132;SDS011;61320;52.008;4.530;2023-07-02T10:12:24;4.53;;;4.44;;
73132;SDS011;61320;52.008;4.530;2023-07-02T10:14:52;4.78;;;4.69;;
73132;SDS011;61320;52.008;4.530;2023-07-02T10:19:50;4.85;;;4.76;;
73132;SDS011;61320;52.008;4.530;2023-07-02T10:22:17;4.80;;;4.75;;
73132;SDS011;61320;52.008;4.530;2023-07-02T10:25:04;4.83;;;4.76;;
73132;SDS011;61320;52.008;4.530;2023-07-02T10:27:32;4.89;;;4.80;;
73132;SDS011;61320;52.008;4.530;2023-07-02T10:30:03;5.01;;;4.90;;
73132;SDS011;61320;52.008;4.530;2023-07-02T10:32:30;4.89;;;4.78;;
73132;SDS011;61320;52.008;4.530;2023-07-02T10:34:58;5.07;;;4.99;;
73132;SDS011;61320;52.008;4.530;2023-07-02T10:37:25;5.24;;;5.21;;
73132;SDS011;61320;52.008;4.530;2023-07-02T10:39:50;5.10;;;5.02;;
73132;SDS011;61320;52.008;4.530;2023-07-02T10:42:17;4.96;;;4.90;;
73132;SDS011;61320;52.008;4.530;2023-07-02T10:44:46;5.06;;;5.03;;
73132;SDS011;61320;52.008;4.530;2023-07-02T10:47:12;5.22;;;5.16;;
73132;SDS011;61320;52.008;4.530;2023-07-02T10:49:38;4.97;;;4.93;;
73132;SDS011;61320;52.008;4.530;2023-07-02T10:52:03;4.87;;;4.84;;
73132;SDS011;61320;52.008;4.530;2023-07-02T10:55:05;5.58;;;5.55;;
73132;SDS011;61320;52.008;4.530;2023-07-02T10:57:23;19.68;;;19.58;;
73132;SDS011;61320;52.008;4.530;2023-07-02T10:59:49;153.64;;;150.49;;
73132;SDS011;61320;52.008;4.530;2023-07-02T11:02:14;68.33;;;68.04;;
73132;SDS011;61320;52.008;4.530;2023-07-02T11:04:40;18.46;;;18.45;;
73132;SDS011;61320;52.008;4.530;2023-07-02T11:07:06;23.47;;;23.47;;
73132;SDS011;61320;52.008;4.530;2023-07-02T11:09:32;33.07;;;33.07;;
73132;SDS011;61320;52.008;4.530;2023-07-02T11:11:58;91.73;;;91.73;;
73132;SDS011;61320;52.008;4.530;2023-07-02T11:14:29;135.21;;;135.17;;
73132;SDS011;61320;52.008;4.530;2023-07-02T11:17:03;86.06;;;86.06;;
73132;SDS011;61320;52.008;4.530;2023-07-02T11:19:31;14.55;;;14.55;;
73132;SDS011;61320;52.008;4.530;2023-07-02T11:21:57;16.51;;;16.50;;
73132;SDS011;61320;52.008;4.530;2023-07-02T11:24:34;6.08;;;6.08;;
73132;SDS011;61320;52.008;4.530;2023-07-02T11:27:02;6.25;;;6.25;;
73132;SDS011;61320;52.008;4.530;2023-07-02T11:29:29;5.91;;;5.88;;
73132;SDS011;61320;52.008;4.530;2023-07-02T11:32:05;5.92;;;5.86;;
73132;SDS011;61320;52.008;4.530;2023-07-02T11:34:34;5.74;;;5.71;;
73132;SDS011;61320;52.008;4.530;2023-07-02T11:37:10;5.29;;;5.26;;
73132;SDS011;61320;52.008;4.530;2023-07-02T11:39:35;5.66;;;5.62;;
73132;SDS011;61320;52.008;4.530;2023-07-02T11:42:01;6.14;;;6.11;;
73132;SDS011;61320;52.008;4.530;2023-07-02T11:44:26;5.95;;;5.94;;
73132;SDS011;61320;52.008;4.530;2023-07-02T11:46:52;6.12;;;6.08;;
73132;SDS011;61320;52.008;4.530;2023-07-02T11:49:17;6.10;;;6.03;;
73132;SDS011;61320;52.008;4.530;2023-07-02T11:51:43;6.22;;;6.17;;
73132;SDS011;61320;52.008;4.530;2023-07-02T11:54:14;6.22;;;6.17;;
73132;SDS011;61320;52.008;4.530;2023-07-02T11:56:41;6.61;;;6.48;;
73132;SDS011;61320;52.008;4.530;2023-07-02T11:59:07;6.36;;;6.30;;
73132;SDS011;61320;52.008;4.530;2023-07-02T12:01:33;6.30;;;6.26;;
73132;SDS011;61320;52.008;4.530;2023-07-02T12:03:59;6.35;;;6.28;;
73132;SDS011;61320;52.008;4.530;2023-07-02T12:06:24;6.33;;;6.29;;
73132;SDS011;61320;52.008;4.530;2023-07-02T12:08:50;6.19;;;6.18;;
73132;SDS011;61320;52.008;4.530;2023-07-02T12:11:16;6.47;;;6.44;;
73132;SDS011;61320;52.008;4.530;2023-07-02T12:13:41;6.73;;;6.68;;
73132;SDS011;61320;52.008;4.530;2023-07-02T12:16:07;6.31;;;6.28;;
73132;SDS011;61320;52.008;4.530;2023-07-02T12:18:32;6.10;;;6.07;;
73132;SDS011;61320;52.008;4.530;2023-07-02T12:20:58;6.83;;;6.78;;
73132;SDS011;61320;52.008;4.530;2023-07-02T12:23:24;6.70;;;6.65;;
73132;SDS011;61320;52.008;4.530;2023-07-02T12:25:50;6.79;;;6.76;;
73132;SDS011;61320;52.008;4.530;2023-07-02T12:28:16;7.06;;;7.06;;
73132;SDS011;61320;52.008;4.530;2023-07-02T12:30:41;6.26;;;6.22;;
73132;SDS011;61320;52.008;4.530;2023-07-02T12:33:07;6.22;;;6.16;;
73132;SDS011;61320;52.008;4.530;2023-07-02T12:35:32;6.08;;;6.01;;
73132;SDS011;61320;52.008;4.530;2023-07-02T12:37:58;6.47;;;6.41;;
73132;SDS011;61320;52.008;4.530;2023-07-02T12:40:23;6.33;;;6.28;;
73132;SDS011;61320;52.008;4.530;2023-07-02T12:42:49;6.06;;;6.03;;
73132;SDS011;61320;52.008;4.530;2023-07-02T12:45:17;6.43;;;6.38;;
73132;SDS011;61320;52.008;4.530;2023-07-02T12:47:43;6.79;;;6.75;;
73132;SDS011;61320;52.008;4.530;2023-07-02T12:50:10;6.69;;;6.66;;
73132;SDS011;61320;52.008;4.530;2023-07-02T12:52:36;6.99;;;6.98;;
73132;SDS011;61320;52.008;4.530;2023-07-02T12:55:02;6.67;;;6.66;;
73132;SDS011;61320;52.008;4.530;2023-07-02T12:57:29;6.73;;;6.71;;
73132;SDS011;61320;52.008;4.530;2023-07-02T12:59:54;6.85;;;6.77;;
73132;SDS011;61320;52.008;4.530;2023-07-02T13:02:21;7.09;;;6.93;;
73132;SDS011;61320;52.008;4.530;2023-07-02T13:04:48;7.25;;;7.10;;
73132;SDS011;61320;52.008;4.530;2023-07-02T13:07:13;7.02;;;6.94;;
73132;SDS011;61320;52.008;4.530;2023-07-02T13:09:39;7.30;;;7.23;;
73132;SDS011;61320;52.008;4.530;2023-07-02T13:12:05;6.36;;;6.29;;
73132;SDS011;61320;52.008;4.530;2023-07-02T13:14:30;6.46;;;6.40;;
73132;SDS011;61320;52.008;4.530;2023-07-02T13:16:56;6.55;;;6.52;;
73132;SDS011;61320;52.008;4.530;2023-07-02T13:19:24;6.69;;;6.66;;
73132;SDS011;61320;52.008;4.530;2023-07-02T13:21:50;6.49;;;6.46;;
73132;SDS011;61320;52.008;4.530;2023-07-02T13:24:15;6.32;;;6.28;;
73132;SDS011;61320;52.008;4.530;2023-07-02T13:26:41;6.26;;;6.22;;
73132;SDS011;61320;52.008;4.530;2023-07-02T13:29:06;6.07;;;6.02;;
73132;SDS011;61320;52.008;4.530;2023-07-02T13:31:31;6.03;;;5.94;;
73132;SDS011;61320;52.008;4.530;2023-07-02T13:33:57;5.59;;;5.52;;
73132;SDS011;61320;52.008;4.530;2023-07-02T13:36:23;5.46;;;5.41;;
73132;SDS011;61320;52.008;4.530;2023-07-02T13:38:48;5.63;;;5.61;;
73132;SDS011;61320;52.008;4.530;2023-07-02T13:41:14;5.99;;;5.96;;
73132;SDS011;61320;52.008;4.530;2023-07-02T13:43:39;5.78;;;5.76;;
73132;SDS011;61320;52.008;4.530;2023-07-02T13:46:05;5.76;;;5.67;;
73132;SDS011;61320;52.008;4.530;2023-07-02T13:48:30;5.62;;;5.50;;
73132;SDS011;61320;52.008;4.530;2023-07-02T13:50:56;5.82;;;5.73;;
73132;SDS011;61320;52.008;4.530;2023-07-02T13:53:21;5.74;;;5.63;;
73132;SDS011;61320;52.008;4.530;2023-07-02T13:55:47;5.49;;;5.41;;
73132;SDS011;61320;52.008;4.530;2023-07-02T13:58:13;5.40;;;5.31;;
73132;SDS011;61320;52.008;4.530;2023-07-02T14:00:38;5.70;;;5.63;;
73132;SDS011;61320;52.008;4.530;2023-07-02T14:03:04;5.73;;;5.67;;
73132;SDS011;61320;52.008;4.530;2023-07-02T14:05:30;6.02;;;5.97;;
73132;SDS011;61320;52.008;4.530;2023-07-02T14:07:56;5.87;;;5.85;;
73132;SDS011;61320;52.008;4.530;2023-07-02T14:10:21;5.89;;;5.86;;
73132;SDS011;61320;52.008;4.530;2023-07-02T14:12:47;7.02;;;6.96;;
73132;SDS011;61320;52.008;4.530;2023-07-02T14:15:12;9.10;;;8.99;;
73132;SDS011;61320;52.008;4.530;2023-07-02T14:17:38;6.90;;;6.85;;
73132;SDS011;61320;52.008;4.530;2023-07-02T14:20:04;6.03;;;6.00;;
73132;SDS011;61320;52.008;4.530;2023-07-02T14:22:31;5.74;;;5.70;;
73132;SDS011;61320;52.008;4.530;2023-07-02T14:24:56;5.52;;;5.46;;
73132;SDS011;61320;52.008;4.530;2023-07-02T14:27:21;5.71;;;5.63;;
73132;SDS011;61320;52.008;4.530;2023-07-02T14:29:47;5.29;;;5.20;;
73132;SDS011;61320;52.008;4.530;2023-07-02T14:32:13;5.61;;;5.54;;
73132;SDS011;61320;52.008;4.530;2023-07-02T14:34:39;5.45;;;5.39;;
73132;SDS011;61320;52.008;4.530;2023-07-02T14:37:05;5.16;;;5.13;;
73132;SDS011;61320;52.008;4.530;2023-07-02T14:39:30;5.35;;;5.35;;
73132;SDS011;61320;52.008;4.530;2023-07-02T14:41:56;5.20;;;5.18;;
73132;SDS011;61320;52.008;4.530;2023-07-02T14:44:21;5.31;;;5.27;;
73132;SDS011;61320;52.008;4.530;2023-07-02T14:46:47;5.70;;;5.66;;